Time;durP1;ratioP1;P1;durP2;ratioP2;P2;SDS_P1;SDS_P2;PMS_P1;PMS_P2;Temp;Humidity;BMP_temperature;BMP_pressure;BME280_temperature;BME280_humidity;BME280_pressure;Samples;Min_cycle;Max_cycle;Signal;HPM_P1;HPM_P2
2023/06/22 00:02:05;;;;;;;1.73;1.63;;;24.70;56.10;;;;;;5074985;28;20573;-58
2023/06/22 00:04:31;;;;;;;2.10;1.90;;;24.70;56.10;;;;;;5074482;28;20166;-59
2023/06/22 00:06:56;;;;;;;1.60;1.50;;;24.70;56.10;;;;;;5075024;28;20225;-58
2023/06/22 00:09:22;;;;;;;1.75;1.50;;;24.70;56.10;;;;;;5075073;28;20536;-58
2023/06/22 00:11:47;;;;;;;1.95;1.52;;;24.70;56.10;;;;;;5074489;28;20646;-58
2023/06/22 00:14:13;;;;;;;2.22;1.73;;;24.70;56.10;;;;;;5074872;28;20538;-58
2023/06/22 00:16:38;;;;;;;2.10;1.55;;;24.70;56.10;;;;;;5074922;28;20634;-58
2023/06/22 00:19:05;;;;;;;1.73;1.63;;;24.70;56.70;;;;;;5073761;28;20181;-58
2023/06/22 00:21:30;;;;;;;1.50;1.40;;;24.70;56.10;;;;;;5075028;28;20190;-58
2023/06/22 00:23:57;;;;;;;1.70;1.60;;;24.60;56.00;;;;;;5073914;28;20174;-58
2023/06/22 00:26:22;;;;;;;1.90;1.80;;;24.60;56.10;;;;;;5074931;28;20210;-57
2023/06/22 00:28:48;;;;;;;1.80;1.70;;;24.70;56.10;;;;;;5074976;28;20171;-57
2023/06/22 00:31:13;;;;;;;1.83;1.73;;;24.70;56.10;;;;;;5073807;28;20943;-58
2023/06/22 00:33:39;;;;;;;1.95;1.75;;;24.60;56.10;;;;;;5074664;28;20261;-58
2023/06/22 00:36:05;;;;;;;1.90;1.75;;;24.70;56.10;;;;;;5074134;28;20524;-57
2023/06/22 00:38:31;;;;;;;2.25;1.85;;;24.60;56.10;;;;;;5073862;28;20237;-58
2023/06/22 00:40:56;;;;;;;1.73;1.52;;;24.60;56.10;;;;;;5074318;28;20182;-58
2023/06/22 00:43:22;;;;;;;1.63;1.52;;;24.60;56.10;;;;;;5074546;28;20170;-58
2023/06/22 00:45:47;;;;;;;1.63;1.50;;;24.60;56.10;;;;;;5073775;28;20201;-58
2023/06/22 00:48:13;;;;;;;2.20;1.77;;;24.70;56.20;;;;;;5074144;28;20178;-58
2023/06/22 00:50:39;;;;;;;1.73;1.55;;;24.60;56.10;;;;;;5073425;28;20182;-57
2023/06/22 00:53:08;;;;;;;2.40;1.80;;;24.60;56.10;;;;;;5072327;28;20533;-57
2023/06/22 00:55:45;;;;;;;1.60;1.50;;;24.60;56.10;;;;;;5074236;28;20174;-56
2023/06/22 00:58:10;;;;;;;2.17;1.80;;;24.60;56.10;;;;;;5074020;28;20199;-57
2023/06/22 01:00:37;;;;;;;1.52;1.42;;;24.60;56.10;;;;;;5072126;28;20265;-58
2023/06/22 01:03:02;;;;;;;1.58;1.48;;;24.60;56.10;;;;;;5073742;28;20185;-58
2023/06/22 01:05:30;;;;;;;1.52;1.42;;;24.60;56.10;;;;;;5074177;28;20174;-58
2023/06/22 01:08:16;;;;;;;2.45;1.83;;;24.60;56.10;;;;;;5073065;28;20660;-58
2023/06/22 01:10:48;;;;;;;2.47;1.67;;;24.60;56.10;;;;;;5074031;28;20507;-58
2023/06/22 01:13:28;;;;;;;1.65;1.55;;;24.60;56.10;;;;;;5072896;28;20182;-58
2023/06/22 01:15:57;;;;;;;1.88;1.75;;;24.60;56.10;;;;;;5072753;28;20190;-58
2023/06/22 01:18:25;;;;;;;1.85;1.75;;;24.60;56.10;;;;;;5056401;28;20245;-58
2023/06/22 01:20:52;;;;;;;1.75;1.65;;;24.60;56.10;;;;;;5071995;28;20189;-57
2023/06/22 01:23:25;;;;;;;1.60;1.50;;;24.60;56.10;;;;;;5072396;28;20187;-58
2023/06/22 01:26:06;;;;;;;1.88;1.38;;;24.60;56.10;;;;;;5072286;28;20210;-57
2023/06/22 01:28:50;;;;;;;1.73;1.50;;;24.60;56.10;;;;;;5071707;28;20633;-58
2023/06/22 01:31:18;;;;;;;1.70;1.50;;;24.60;56.10;;;;;;5071756;28;20190;-58
2023/06/22 01:33:45;;;;;;;2.00;1.90;;;24.60;56.10;;;;;;5072204;28;20641;-58
2023/06/22 01:36:11;;;;;;;2.28;1.92;;;24.60;56.10;;;;;;5054637;28;20182;-58
2023/06/22 01:38:37;;;;;;;2.20;1.83;;;24.60;56.10;;;;;;5072086;28;20700;-59
2023/06/22 01:41:02;;;;;;;1.52;1.42;;;24.60;56.10;;;;;;5072149;28;20232;-58
2023/06/22 01:43:28;;;;;;;1.88;1.77;;;24.60;56.10;;;;;;5071351;28;20179;-58
2023/06/22 01:45:59;;;;;;;2.70;1.90;;;24.60;56.10;;;;;;5055392;28;20202;-58
2023/06/22 01:48:25;;;;;;;1.50;1.40;;;24.50;56.00;;;;;;5072590;28;20182;-57
2023/06/22 01:50:52;;;;;;;2.03;1.60;;;24.50;56.00;;;;;;5071984;28;20167;-58
2023/06/22 01:53:18;;;;;;;1.40;1.33;;;24.50;56.00;;;;;;5072933;28;20185;-57
2023/06/22 01:55:43;;;;;;;1.55;1.45;;;24.50;56.00;;;;;;5072608;28;20170;-57
2023/06/22 01:58:09;;;;;;;1.80;1.70;;;24.50;56.10;;;;;;5073032;28;20181;-57
2023/06/22 02:00:38;;;;;;;1.42;1.33;;;24.50;56.00;;;;;;5073031;28;20189;-58
2023/06/22 02:03:13;;;;;;;2.70;1.60;;;24.50;56.10;;;;;;5070954;28;20174;-58
2023/06/22 02:05:54;;;;;;;1.90;1.80;;;24.50;56.70;;;;;;5071974;28;20173;-58
2023/06/22 02:08:24;;;;;;;1.63;1.52;;;24.50;56.00;;;;;;5071694;28;20183;-58
2023/06/22 02:10:51;;;;;;;1.83;1.73;;;24.50;56.00;;;;;;5071083;28;20540;-58
2023/06/22 02:13:16;;;;;;;1.90;1.80;;;24.50;56.00;;;;;;5072727;28;20657;-58
2023/06/22 02:15:42;;;;;;;2.20;2.00;;;24.50;56.00;;;;;;5071550;28;20182;-58
2023/06/22 02:18:07;;;;;;;1.60;1.50;;;24.50;56.00;;;;;;5070893;28;20182;-57
2023/06/22 02:20:35;;;;;;;2.47;1.88;;;24.50;56.00;;;;;;5071827;28;20649;-58
2023/06/22 02:23:01;;;;;;;1.65;1.55;;;24.50;56.00;;;;;;5071493;28;20202;-57
2023/06/22 02:25:27;;;;;;;1.88;1.75;;;24.50;56.00;;;;;;5072339;28;20194;-57
2023/06/22 02:27:52;;;;;;;2.55;1.83;;;24.50;56.10;;;;;;5072950;28;20217;-58
2023/06/22 02:30:18;;;;;;;2.33;2.08;;;24.50;56.00;;;;;;5072644;28;20186;-57
2023/06/22 02:32:43;;;;;;;1.95;1.65;;;24.50;56.00;;;;;;5072287;28;20171;-57
2023/06/22 02:35:09;;;;;;;2.15;1.95;;;24.50;56.10;;;;;;5072671;28;20174;-57
2023/06/22 02:37:41;;;;;;;2.08;1.83;;;24.50;56.10;;;;;;5071940;28;20174;-57
2023/06/22 02:40:10;;;;;;;2.03;1.92;;;24.50;56.10;;;;;;5072577;28;20181;-57
2023/06/22 02:42:36;;;;;;;1.90;1.80;;;24.50;56.10;;;;;;5072814;28;20182;-57
2023/06/22 02:45:02;;;;;;;1.60;1.50;;;24.50;56.10;;;;;;5074454;28;20180;-58
2023/06/22 02:47:27;;;;;;;2.05;1.85;;;24.50;56.10;;;;;;5077457;28;20214;-58
2023/06/22 02:49:53;;;;;;;1.67;1.58;;;24.50;56.10;;;;;;5076787;28;20534;-57
2023/06/22 02:52:18;;;;;;;1.73;1.63;;;24.40;56.70;;;;;;5075745;28;20257;-57
2023/06/22 02:54:45;;;;;;;2.03;1.80;;;24.50;56.10;;;;;;5076660;28;20269;-58
2023/06/22 02:57:13;;;;;;;2.00;1.80;;;24.50;56.10;;;;;;5076286;28;20258;-57
2023/06/22 02:59:40;;;;;;;1.80;1.70;;;24.50;56.10;;;;;;5076001;28;20175;-57
2023/06/22 03:02:06;;;;;;;2.15;1.95;;;24.40;56.10;;;;;;5076067;28;20182;-58
2023/06/22 03:04:31;;;;;;;2.38;2.17;;;24.50;56.10;;;;;;5076607;28;20187;-58
2023/06/22 03:07:00;;;;;;;2.47;1.90;;;24.40;56.10;;;;;;5075312;28;20532;-58
2023/06/22 03:09:27;;;;;;;2.03;1.83;;;24.40;56.10;;;;;;5076293;28;20194;-58
2023/06/22 03:11:53;;;;;;;1.90;1.80;;;24.50;56.10;;;;;;5076125;28;20199;-58
2023/06/22 03:14:19;;;;;;;2.22;2.05;;;24.40;56.10;;;;;;5075274;28;20212;-58
2023/06/22 03:16:44;;;;;;;1.85;1.73;;;24.40;56.70;;;;;;5076340;28;20206;-57
2023/06/22 03:19:10;;;;;;;2.00;1.85;;;24.40;56.10;;;;;;5075694;28;20637;-57
2023/06/22 03:21:38;;;;;;;2.22;1.92;;;24.40;56.10;;;;;;5075367;28;20174;-57
2023/06/22 03:24:04;;;;;;;2.03;1.90;;;24.40;56.10;;;;;;5075785;28;20178;-57
2023/06/22 03:26:30;;;;;;;1.83;1.63;;;24.40;56.10;;;;;;5075837;28;20210;-57
2023/06/22 03:28:55;;;;;;;2.28;1.50;;;24.40;56.10;;;;;;5075158;28;20557;-58
2023/06/22 03:31:21;;;;;;;1.88;1.77;;;24.40;56.10;;;;;;5076073;28;20174;-57
2023/06/22 03:33:48;;;;;;;2.20;2.03;;;24.40;56.10;;;;;;5075515;28;20175;-58
2023/06/22 03:36:18;;;;;;;1.90;1.80;;;24.40;56.10;;;;;;5075554;28;20178;-58
2023/06/22 03:38:47;;;;;;;2.10;1.90;;;24.40;56.70;;;;;;5074765;28;20553;-57
2023/06/22 03:41:12;;;;;;;1.85;1.75;;;24.40;56.10;;;;;;5073459;28;20178;-57
2023/06/22 03:43:38;;;;;;;2.67;2.10;;;24.40;56.10;;;;;;5074626;28;20258;-57
2023/06/22 03:46:03;;;;;;;2.20;2.00;;;24.40;56.10;;;;;;5074265;28;20206;-58
2023/06/22 03:48:29;;;;;;;3.20;1.83;;;24.40;56.10;;;;;;5073836;28;20253;-57
2023/06/22 03:50:54;;;;;;;2.17;2.08;;;24.40;56.10;;;;;;5074448;28;20179;-58
2023/06/22 03:53:20;;;;;;;1.90;1.80;;;24.30;56.70;;;;;;5074084;28;20171;-58
2023/06/22 03:55:50;;;;;;;2.42;1.83;;;24.40;56.10;;;;;;5073021;28;20189;-58
2023/06/22 03:58:16;;;;;;;2.50;2.30;;;24.40;56.10;;;;;;5074141;28;20174;-57
2023/06/22 04:00:41;;;;;;;2.63;2.40;;;24.40;56.20;;;;;;5074314;28;20579;-58
2023/06/22 04:03:07;;;;;;;2.20;1.95;;;24.40;56.10;;;;;;5073300;28;20535;-58
2023/06/22 04:05:33;;;;;;;2.50;2.30;;;24.40;56.10;;;;;;5074191;28;20521;-58
2023/06/22 04:07:58;;;;;;;2.35;1.95;;;24.30;56.10;;;;;;5073753;28;20225;-58
2023/06/22 04:10:24;;;;;;;2.53;2.33;;;24.30;56.10;;;;;;5073310;28;20174;-58
2023/06/22 04:12:49;;;;;;;2.70;2.30;;;24.40;56.20;;;;;;5074234;28;20178;-58
2023/06/22 04:15:15;;;;;;;2.50;2.30;;;24.40;56.80;;;;;;5073892;28;21057;-58
2023/06/22 04:17:40;;;;;;;2.30;2.10;;;24.40;56.30;;;;;;5073373;28;20569;-57
2023/06/22 04:20:07;;;;;;;2.25;2.05;;;24.30;56.10;;;;;;5073596;28;20652;-57
2023/06/22 04:22:32;;;;;;;2.15;2.00;;;24.40;56.20;;;;;;5073792;28;20179;-58
2023/06/22 04:24:58;;;;;;;2.75;2.33;;;24.30;56.10;;;;;;5072723;28;20223;-58
2023/06/22 04:27:23;;;;;;;2.63;2.42;;;24.40;56.20;;;;;;5073945;28;20221;-57
2023/06/22 04:29:49;;;;;;;3.10;2.70;;;24.30;56.10;;;;;;5073988;28;20171;-57
2023/06/22 04:32:17;;;;;;;3.40;2.80;;;24.40;56.20;;;;;;5072712;28;20178;-58
2023/06/22 04:34:43;;;;;;;2.72;2.53;;;24.40;56.10;;;;;;5073694;28;20224;-58
2023/06/22 04:37:09;;;;;;;2.50;2.30;;;24.40;56.10;;;;;;5072804;28;20546;-58
2023/06/22 04:39:35;;;;;;;3.13;2.83;;;24.40;56.10;;;;;;5036625;28;1073858;-58
2023/06/22 04:42:01;;;;;;;2.50;2.30;;;24.40;56.10;;;;;;5074465;28;20200;-58
2023/06/22 04:44:27;;;;;;;2.42;2.22;;;24.40;56.10;;;;;;5073947;28;20281;-58
2023/06/22 04:47:03;;;;;;;2.50;2.30;;;24.40;56.80;;;;;;5074564;28;20298;-58
2023/06/22 04:49:37;;;;;;;2.70;2.50;;;24.40;56.10;;;;;;5074592;28;20225;-58
2023/06/22 04:52:04;;;;;;;2.83;2.55;;;24.40;56.10;;;;;;5073424;28;20536;-57
2023/06/22 04:54:32;;;;;;;3.33;2.35;;;24.40;56.10;;;;;;5074194;28;20653;-58
2023/06/22 04:57:09;;;;;;;2.38;2.17;;;24.40;56.10;;;;;;5073852;28;20189;-58
2023/06/22 04:59:35;;;;;;;2.42;2.22;;;24.40;56.10;;;;;;5073537;28;20228;-58
2023/06/22 05:02:02;;;;;;;2.17;2.08;;;24.40;56.10;;;;;;5073814;28;20178;-58
2023/06/22 05:04:28;;;;;;;3.25;2.60;;;24.30;56.10;;;;;;5073923;28;20589;-59
2023/06/22 05:06:53;;;;;;;2.40;2.22;;;24.40;56.80;;;;;;5072335;28;20306;-59
2023/06/22 05:09:19;;;;;;;2.53;2.33;;;24.40;56.10;;;;;;5073582;28;20319;-58
2023/06/22 05:11:45;;;;;;;2.28;2.08;;;24.40;56.10;;;;;;5074046;28;20178;-58
2023/06/22 05:14:10;;;;;;;2.40;2.20;;;24.40;56.10;;;;;;5072896;28;20212;-58
2023/06/22 05:16:40;;;;;;;3.13;2.65;;;24.40;56.10;;;;;;5073815;28;20224;-58
2023/06/22 05:19:06;;;;;;;2.40;2.20;;;24.40;56.10;;;;;;5072126;28;20166;-58
2023/06/22 05:21:31;;;;;;;2.20;2.10;;;24.40;56.10;;;;;;5073110;28;20166;-58
2023/06/22 05:24:00;;;;;;;2.80;2.50;;;24.40;56.10;;;;;;5073509;28;20220;-58
2023/06/22 05:26:26;;;;;;;2.83;2.63;;;24.40;56.10;;;;;;5073059;28;20544;-58
2023/06/22 05:28:51;;;;;;;2.60;2.40;;;24.40;56.10;;;;;;5073655;28;20181;-58
2023/06/22 05:31:17;;;;;;;2.50;2.30;;;24.40;56.20;;;;;;5073298;28;20170;-58
2023/06/22 05:33:43;;;;;;;2.50;2.40;;;24.40;56.10;;;;;;5072695;28;20167;-59
2023/06/22 05:36:09;;;;;;;2.42;2.22;;;24.40;56.20;;;;;;5073295;28;20174;-58
2023/06/22 05:38:35;;;;;;;2.58;2.38;;;24.40;56.10;;;;;;5073233;28;20233;-59
2023/06/22 05:41:01;;;;;;;2.10;2.00;;;24.40;56.20;;;;;;5072491;28;20253;-58
2023/06/22 05:43:26;;;;;;;2.15;1.95;;;24.40;56.20;;;;;;5073472;28;20174;-59
2023/06/22 05:45:52;;;;;;;2.53;2.30;;;24.40;56.20;;;;;;5073321;28;20536;-58
2023/06/22 05:48:17;;;;;;;2.25;2.05;;;24.50;56.20;;;;;;5072216;28;20220;-58
2023/06/22 05:50:43;;;;;;;2.30;2.10;;;24.50;56.20;;;;;;5073397;28;20184;-58
2023/06/22 05:53:09;;;;;;;2.63;2.42;;;24.40;56.10;;;;;;5072881;28;20211;-58
2023/06/22 05:55:34;;;;;;;2.15;1.98;;;24.40;56.10;;;;;;5072321;28;20178;-58
2023/06/22 05:58:00;;;;;;;2.30;2.10;;;24.50;56.20;;;;;;5072906;28;20177;-58
2023/06/22 06:00:25;;;;;;;3.08;2.78;;;24.50;56.10;;;;;;5073037;28;20175;-58
2023/06/22 06:02:51;;;;;;;2.47;2.28;;;24.50;56.20;;;;;;5072256;28;20171;-59
2023/06/22 06:05:16;;;;;;;2.50;2.30;;;24.50;56.20;;;;;;5072640;28;20182;-59
2023/06/22 06:07:42;;;;;;;2.40;2.30;;;24.50;56.20;;;;;;5073024;28;20214;-58
2023/06/22 06:10:09;;;;;;;3.00;2.60;;;24.50;56.20;;;;;;5072059;28;20197;-58
2023/06/22 06:12:34;;;;;;;2.60;2.40;;;24.50;56.20;;;;;;5072944;28;20182;-58
2023/06/22 06:15:00;;;;;;;2.47;2.28;;;24.50;56.20;;;;;;5072823;28;20178;-59
2023/06/22 06:17:25;;;;;;;2.58;2.38;;;24.50;56.20;;;;;;5071934;28;20178;-58
2023/06/22 06:19:54;;;;;;;2.53;2.33;;;24.50;56.20;;;;;;5073030;28;20174;-58
2023/06/22 06:22:20;;;;;;;2.42;2.30;;;24.50;56.20;;;;;;5072695;28;20170;-58
2023/06/22 06:24:47;;;;;;;2.70;2.50;;;24.50;56.20;;;;;;5072181;28;20182;-58
2023/06/22 06:27:13;;;;;;;2.60;2.38;;;24.50;56.20;;;;;;5072672;28;20225;-58
2023/06/22 06:29:38;;;;;;;2.67;2.47;;;24.50;56.20;;;;;;5071972;28;20171;-58
2023/06/22 06:32:04;;;;;;;2.65;2.38;;;24.40;56.20;;;;;;5072336;28;20177;-58
2023/06/22 06:34:30;;;;;;;2.25;2.15;;;24.50;56.20;;;;;;5072814;28;20166;-58
2023/06/22 06:36:55;;;;;;;2.55;2.35;;;24.50;56.20;;;;;;5072045;28;20624;-58
2023/06/22 06:39:21;;;;;;;2.95;2.67;;;24.50;56.30;;;;;;5072595;28;20218;-58
2023/06/22 06:41:46;;;;;;;2.88;2.67;;;24.50;56.20;;;;;;5072660;28;20185;-58
2023/06/22 06:44:12;;;;;;;2.38;2.17;;;24.50;56.20;;;;;;5071565;28;20209;-58
2023/06/22 06:46:37;;;;;;;2.60;2.40;;;24.50;56.20;;;;;;5072428;28;20205;-58
2023/06/22 06:49:03;;;;;;;2.40;2.20;;;24.50;56.20;;;;;;5072416;28;20656;-58
2023/06/22 06:51:29;;;;;;;2.65;2.45;;;24.50;56.30;;;;;;5071820;28;20641;-56
2023/06/22 06:53:54;;;;;;;2.28;2.08;;;24.50;56.30;;;;;;5072672;28;20171;-57
2023/06/22 06:56:20;;;;;;;2.38;2.17;;;24.50;56.30;;;;;;5058620;28;20171;-55
2023/06/22 06:58:46;;;;;;;2.67;2.47;;;24.50;56.20;;;;;;5051278;28;20258;-56
2023/06/22 07:01:12;;;;;;;2.50;2.30;;;24.50;56.20;;;;;;5051731;28;20183;-55
2023/06/22 07:03:38;;;;;;;4.40;2.67;;;24.60;56.30;;;;;;5052586;28;20171;-52
2023/06/22 07:06:03;;;;;;;2.38;2.15;;;24.60;56.30;;;;;;5051174;28;20211;-57
2023/06/22 07:08:29;;;;;;;2.05;1.95;;;24.60;56.40;;;;;;5052444;28;20542;-55
2023/06/22 07:10:55;;;;;;;2.50;2.30;;;24.60;56.40;;;;;;5052334;28;20182;-55
2023/06/22 07:13:20;;;;;;;2.28;2.17;;;24.60;56.50;;;;;;5051356;28;20286;-57
2023/06/22 07:15:46;;;;;;;2.72;2.30;;;24.60;56.50;;;;;;5052148;28;20191;-57
2023/06/22 07:18:11;;;;;;;3.63;2.58;;;24.60;56.70;;;;;;5052029;28;20564;-57
2023/06/22 07:20:38;;;;;;;3.00;2.28;;;24.60;56.70;;;;;;5051790;28;20186;-57
2023/06/22 07:23:04;;;;;;;3.83;2.30;;;24.60;56.80;;;;;;5051945;28;20179;-56
2023/06/22 07:25:30;;;;;;;2.65;2.33;;;24.60;56.90;;;;;;5052149;28;20194;-57
2023/06/22 07:28:01;;;;;;;2.92;2.72;;;24.60;56.80;;;;;;5051131;28;20234;-57
2023/06/22 07:30:27;;;;;;;2.80;2.60;;;24.60;56.90;;;;;;5053521;28;20185;-58
2023/06/22 07:32:52;;;;;;;2.72;2.42;;;24.60;57.50;;;;;;5055968;28;20266;-58
2023/06/22 07:35:18;;;;;;;2.45;2.28;;;24.60;56.90;;;;;;5055031;28;20210;-58
2023/06/22 07:37:43;;;;;;;2.45;2.25;;;24.60;56.80;;;;;;5055438;28;20690;-58
2023/06/22 07:40:09;;;;;;;2.40;2.20;;;24.60;56.80;;;;;;5054834;28;20524;-58
2023/06/22 07:42:35;;;;;;;2.83;2.53;;;24.60;56.90;;;;;;5055667;28;20182;-58
2023/06/22 07:45:02;;;;;;;2.78;2.58;;;24.60;57.10;;;;;;5055098;28;20627;-58
2023/06/22 07:47:28;;;;;;;2.78;2.45;;;24.70;56.90;;;;;;5054755;28;20215;-55
2023/06/22 07:49:58;;;;;;;2.65;2.30;;;24.70;56.90;;;;;;5055672;28;20167;-57
2023/06/22 07:52:25;;;;;;;3.00;2.70;;;24.70;56.90;;;;;;5055516;28;20179;-57
2023/06/22 07:54:51;;;;;;;4.15;2.80;;;24.70;56.90;;;;;;5054691;28;20326;-58
2023/06/22 07:57:16;;;;;;;2.13;2.03;;;24.70;56.90;;;;;;5054990;28;20277;-58
2023/06/22 07:59:42;;;;;;;2.58;2.38;;;24.70;57.00;;;;;;5055129;28;20171;-58
2023/06/22 08:02:09;;;;;;;2.67;2.47;;;24.70;57.00;;;;;;5054303;28;20183;-58
2023/06/22 08:04:34;;;;;;;2.78;2.50;;;24.70;57.00;;;;;;5055116;28;20247;-57
2023/06/22 08:07:00;;;;;;;2.47;2.28;;;24.70;57.30;;;;;;5054193;28;20214;-58
2023/06/22 08:09:30;;;;;;;2.47;2.28;;;24.70;57.10;;;;;;5054197;28;20640;-58
2023/06/22 08:11:56;;;;;;;2.63;2.42;;;24.70;57.00;;;;;;5054585;28;20180;-57
2023/06/22 08:14:25;;;;;;;2.97;2.70;;;24.70;57.00;;;;;;5055041;28;20167;-57
2023/06/22 08:16:51;;;;;;;2.50;2.30;;;24.70;56.90;;;;;;5054454;28;20181;-57
2023/06/22 08:19:16;;;;;;;2.55;2.28;;;24.70;57.00;;;;;;5054815;28;20175;-56
2023/06/22 08:21:42;;;;;;;2.70;2.50;;;24.60;56.90;;;;;;5055056;28;20654;-55
2023/06/22 08:24:08;;;;;;;2.10;2.00;;;24.70;56.90;;;;;;5053820;28;20641;-54
2023/06/22 08:26:36;;;;;;;2.10;2.00;;;24.70;57.00;;;;;;5054704;28;20207;-56
2023/06/22 08:29:02;;;;;;;2.60;2.40;;;24.70;57.00;;;;;;5054006;28;20744;-55
2023/06/22 08:31:28;;;;;;;2.70;2.50;;;24.70;56.90;;;;;;5053882;28;20233;-57
2023/06/22 08:33:53;;;;;;;2.80;2.42;;;24.70;56.90;;;;;;5054967;28;20537;-56
2023/06/22 08:36:19;;;;;;;2.10;2.00;;;24.70;56.80;;;;;;5053905;28;20704;-56
2023/06/22 08:38:48;;;;;;;2.53;2.33;;;24.70;56.90;;;;;;5053187;28;20560;-58
2023/06/22 08:41:13;;;;;;;2.78;2.47;;;24.70;56.90;;;;;;5053138;28;20546;-57
2023/06/22 08:43:39;;;;;;;2.33;2.20;;;24.70;56.80;;;;;;5053425;28;20183;-57
2023/06/22 08:46:04;;;;;;;2.70;2.50;;;24.70;56.70;;;;;;5054113;28;20182;-58
2023/06/22 08:48:30;;;;;;;2.60;2.40;;;24.80;56.80;;;;;;5054234;28;20179;-56
2023/06/22 08:50:55;;;;;;;2.63;2.42;;;24.80;56.80;;;;;;5053414;28;20182;-52
2023/06/22 08:53:21;;;;;;;2.40;2.20;;;24.70;56.70;;;;;;5054487;28;20217;-56
2023/06/22 08:55:46;;;;;;;2.80;2.60;;;24.80;56.80;;;;;;5054119;28;20650;-57
2023/06/22 08:58:12;;;;;;;2.65;2.45;;;24.80;56.80;;;;;;5053467;28;20182;-56
2023/06/22 09:00:37;;;;;;;3.00;2.50;;;24.80;56.80;;;;;;5054165;28;20175;-57
2023/06/22 09:03:03;;;;;;;2.30;2.20;;;24.80;56.80;;;;;;5053955;28;20171;-57
2023/06/22 09:05:29;;;;;;;2.30;2.10;;;24.80;57.40;;;;;;5053331;28;20229;-58
2023/06/22 09:07:56;;;;;;;3.08;2.80;;;24.80;56.70;;;;;;5053939;28;20214;-57
2023/06/22 09:10:22;;;;;;;2.45;2.25;;;24.80;56.70;;;;;;5054242;28;20230;-58
2023/06/22 09:12:47;;;;;;;2.42;2.13;;;24.80;56.70;;;;;;5053592;28;20195;-57
2023/06/22 09:15:13;;;;;;;2.38;2.25;;;24.80;56.60;;;;;;5053788;28;20638;-57
2023/06/22 09:17:38;;;;;;;2.67;2.47;;;24.80;56.70;;;;;;5053853;28;20167;-57
2023/06/22 09:20:05;;;;;;;2.67;2.47;;;24.80;56.60;;;;;;5052837;28;20217;-56
2023/06/22 09:22:31;;;;;;;2.42;2.22;;;24.80;56.60;;;;;;5053951;28;20657;-56
2023/06/22 09:24:57;;;;;;;2.50;2.30;;;24.80;56.50;;;;;;5053385;28;20179;-55
2023/06/22 09:27:23;;;;;;;2.28;2.17;;;24.80;56.50;;;;;;5052713;28;20552;-53
2023/06/22 09:29:49;;;;;;;2.30;2.08;;;24.80;56.50;;;;;;5053592;28;20171;-56
2023/06/22 09:32:15;;;;;;;2.60;2.40;;;24.80;56.60;;;;;;5053248;28;20262;-55
2023/06/22 09:34:41;;;;;;;2.50;2.30;;;24.80;56.50;;;;;;5053000;28;20210;-57
2023/06/22 09:37:06;;;;;;;2.60;2.40;;;24.90;56.50;;;;;;5053200;28;20190;-56
2023/06/22 09:39:32;;;;;;;2.70;2.47;;;24.90;56.50;;;;;;5052541;28;20223;-57
2023/06/22 09:42:00;;;;;;;2.70;2.50;;;24.90;56.50;;;;;;5053092;28;20175;-56
2023/06/22 09:44:26;;;;;;;2.53;2.33;;;24.90;56.50;;;;;;5053409;28;20229;-55
2023/06/22 09:46:52;;;;;;;2.92;2.50;;;24.90;56.50;;;;;;5052652;28;20211;-56
2023/06/22 09:49:17;;;;;;;2.63;2.42;;;24.80;56.50;;;;;;5052893;28;20680;-54
2023/06/22 09:51:43;;;;;;;2.45;2.25;;;24.80;56.50;;;;;;5053447;28;20175;-56
2023/06/22 09:54:08;;;;;;;2.55;2.35;;;24.90;56.50;;;;;;5052104;28;20186;-56
2023/06/22 09:56:34;;;;;;;2.58;2.38;;;24.90;56.60;;;;;;5053032;28;20167;-57
2023/06/22 09:58:59;;;;;;;2.58;2.38;;;24.80;56.50;;;;;;5053045;28;20171;-56
2023/06/22 10:01:25;;;;;;;2.58;2.38;;;24.80;56.50;;;;;;5052404;28;20175;-57
2023/06/22 10:03:54;;;;;;;2.80;2.60;;;24.80;56.60;;;;;;5053128;28;20167;-56
2023/06/22 10:06:20;;;;;;;2.65;2.45;;;24.80;56.50;;;;;;5052678;28;20207;-58
2023/06/22 10:08:45;;;;;;;2.10;2.00;;;24.80;56.60;;;;;;5052164;28;20183;-57
2023/06/22 10:11:11;;;;;;;2.25;2.10;;;24.80;56.60;;;;;;5052817;28;20570;-55
2023/06/22 10:13:36;;;;;;;2.10;2.00;;;24.80;56.60;;;;;;5053099;28;20182;-57
2023/06/22 10:16:02;;;;;;;2.40;2.20;;;24.80;56.60;;;;;;5052167;28;20168;-56
2023/06/22 10:18:27;;;;;;;2.20;2.10;;;24.80;56.60;;;;;;5052863;28;20183;-55
2023/06/22 10:20:53;;;;;;;2.05;1.95;;;24.70;56.60;;;;;;5053053;28;20648;-56
2023/06/22 10:23:19;;;;;;;2.15;2.05;;;24.80;56.60;;;;;;5051794;28;20224;-55
2023/06/22 10:25:45;;;;;;;2.60;2.40;;;24.80;56.70;;;;;;5052815;28;20216;-56
2023/06/22 10:28:11;;;;;;;2.55;2.35;;;24.70;56.60;;;;;;5052440;28;20242;-55
2023/06/22 10:30:36;;;;;;;2.38;2.25;;;24.70;56.60;;;;;;5052190;28;20171;-56
2023/06/22 10:33:02;;;;;;;2.55;2.35;;;24.70;56.60;;;;;;5052438;28;20202;-57
2023/06/22 10:35:27;;;;;;;2.10;2.00;;;24.70;56.60;;;;;;5052353;28;20210;-57
2023/06/22 10:37:54;;;;;;;2.72;2.53;;;24.80;56.70;;;;;;5051502;28;20238;-56
2023/06/22 10:40:20;;;;;;;2.42;2.22;;;24.70;56.60;;;;;;5052588;28;20598;-57
2023/06/22 10:42:45;;;;;;;2.25;2.15;;;24.70;56.60;;;;;;5052652;28;20673;-57
2023/06/22 10:45:11;;;;;;;2.15;2.05;;;24.70;56.60;;;;;;5051497;28;20202;-56
2023/06/22 10:47:36;;;;;;;2.67;2.47;;;24.80;56.60;;;;;;5052505;28;20250;-55
2023/06/22 10:50:02;;;;;;;3.00;2.58;;;24.70;56.60;;;;;;5051557;28;20646;-55
2023/06/22 10:52:28;;;;;;;2.65;2.45;;;24.70;56.60;;;;;;5052723;28;20539;-55
2023/06/22 10:54:53;;;;;;;2.60;2.40;;;24.70;56.50;;;;;;5052708;28;20177;-57
2023/06/22 10:57:19;;;;;;;2.40;2.25;;;24.80;57.30;;;;;;5051513;28;20688;-57
2023/06/22 10:59:44;;;;;;;2.58;2.38;;;24.80;56.60;;;;;;5052432;28;20541;-58
2023/06/22 11:02:10;;;;;;;2.40;2.20;;;24.80;56.60;;;;;;5052010;28;20172;-58
2023/06/22 11:04:35;;;;;;;2.40;2.20;;;24.80;56.70;;;;;;5052106;28;20171;-58
2023/06/22 11:07:01;;;;;;;2.47;2.30;;;24.80;56.80;;;;;;5055548;28;20344;-58
2023/06/22 11:09:27;;;;;;;2.40;2.20;;;24.80;57.50;;;;;;5055985;28;20182;-58
2023/06/22 11:11:55;;;;;;;3.50;2.60;;;24.80;57.00;;;;;;5055442;28;20220;-57
2023/06/22 11:14:22;;;;;;;3.25;2.58;;;24.80;56.90;;;;;;5062730;28;20174;-57
2023/06/22 11:16:47;;;;;;;4.00;2.55;;;24.80;57.00;;;;;;5057610;28;20317;-58
2023/06/22 11:19:13;;;;;;;2.95;2.75;;;24.80;57.00;;;;;;5075435;28;20261;-58
2023/06/22 11:21:38;;;;;;;2.45;2.30;;;24.70;57.00;;;;;;5076010;28;20640;-57
2023/06/22 11:24:04;;;;;;;2.75;2.53;;;24.80;57.70;;;;;;5075696;28;20170;-56
2023/06/22 11:26:31;;;;;;;2.58;2.38;;;24.80;57.10;;;;;;5069694;28;20251;-56
2023/06/22 11:28:57;;;;;;;2.72;2.40;;;24.70;57.00;;;;;;5055528;28;20270;-57
2023/06/22 11:31:22;;;;;;;2.45;2.25;;;24.70;57.00;;;;;;5055810;28;20262;-57
2023/06/22 11:33:48;;;;;;;3.00;2.70;;;24.70;57.00;;;;;;5055016;28;20527;-58
2023/06/22 11:36:14;;;;;;;2.40;2.20;;;24.70;57.00;;;;;;5055221;28;20174;-58
2023/06/22 11:38:39;;;;;;;3.15;2.38;;;24.70;57.10;;;;;;5055620;28;20333;-58
2023/06/22 11:41:08;;;;;;;2.30;2.20;;;24.70;57.10;;;;;;5054627;28;20224;-57
2023/06/22 11:43:34;;;;;;;3.50;2.50;;;24.70;57.30;;;;;;5055911;28;20186;-58
2023/06/22 11:46:03;;;;;;;3.33;2.63;;;24.70;57.20;;;;;;5055338;28;20171;-57
2023/06/22 11:48:28;;;;;;;3.88;2.60;;;24.70;57.30;;;;;;5053636;28;20237;-56
2023/06/22 11:50:55;;;;;;;3.95;2.40;;;24.70;57.50;;;;;;5055432;28;20179;-56
2023/06/22 11:53:21;;;;;;;2.95;2.55;;;24.60;58.10;;;;;;5054864;28;20190;-56
2023/06/22 11:55:47;;;;;;;2.88;2.58;;;24.60;57.60;;;;;;5055551;28;20175;-56
2023/06/22 11:58:12;;;;;;;2.80;2.53;;;24.60;57.70;;;;;;5055092;28;20632;-57
2023/06/22 12:00:38;;;;;;;2.75;2.55;;;24.60;57.70;;;;;;5054809;28;20534;-56
2023/06/22 12:03:04;;;;;;;3.28;2.65;;;24.60;57.90;;;;;;5055041;28;20198;-58
2023/06/22 12:05:29;;;;;;;4.32;2.95;;;24.60;57.90;;;;;;5055345;28;20187;-55
2023/06/22 12:07:55;;;;;;;3.10;2.80;;;24.60;58.10;;;;;;5054487;28;20256;-58
2023/06/22 12:10:21;;;;;;;3.35;3.05;;;24.60;58.20;;;;;;5055141;28;20182;-57
2023/06/22 12:12:47;;;;;;;3.15;2.60;;;24.60;58.30;;;;;;5055198;28;20201;-64
2023/06/22 12:15:13;;;;;;;3.00;2.80;;;24.60;57.90;;;;;;5053829;28;20168;-65
2023/06/22 12:17:38;;;;;;;5.82;2.92;;;24.60;57.80;;;;;;5054968;28;20183;-65
2023/06/22 12:20:05;;;;;;;3.53;2.75;;;24.60;57.80;;;;;;5054547;28;20254;-65
2023/06/22 12:22:34;;;;;;;4.75;2.72;;;24.60;57.70;;;;;;5054284;28;20179;-64
2023/06/22 12:25:00;;;;;;;4.63;2.78;;;24.60;57.60;;;;;;5054414;28;20649;-65
2023/06/22 12:27:25;;;;;;;3.85;2.90;;;24.60;57.60;;;;;;5054837;28;20218;-65
2023/06/22 12:29:51;;;;;;;5.50;2.92;;;24.60;58.20;;;;;;5054054;28;20175;-66
2023/06/22 12:32:17;;;;;;;3.72;2.28;;;24.60;57.60;;;;;;5054357;28;20175;-66
2023/06/22 12:34:42;;;;;;;4.13;3.05;;;24.60;57.60;;;;;;5054826;28;20649;-66
2023/06/22 12:37:08;;;;;;;3.83;2.85;;;24.60;58.00;;;;;;5053677;28;20217;-63
2023/06/22 12:39:33;;;;;;;7.32;6.20;;;24.60;57.90;;;;;;5054480;28;20670;-68
2023/06/22 12:41:59;;;;;;;8.85;7.30;;;24.60;59.60;;;;;;5054440;28;20598;-66
2023/06/22 12:44:25;;;;;;;9.80;7.60;;;24.50;61.00;;;;;;5053824;28;20176;-66